sensor_id;sensor_type;location;lat;lon;timestamp;P1;durP1;ratioP1;P2;durP2;ratioP2
75926;SDS011;64605;48.296;16.416;2023-03-13T00:03:43;6.50;;;4.70;;
75926;SDS011;64605;48.296;16.416;2023-03-13T00:06:09;7.35;;;4.70;;
75926;SDS011;64605;48.296;16.416;2023-03-13T00:08:35;7.38;;;4.95;;
75926;SDS011;64605;48.296;16.416;2023-03-13T00:11:01;8.50;;;4.82;;
75926;SDS011;64605;48.296;16.416;2023-03-13T00:13:28;6.70;;;5.28;;
75926;SDS011;64605;48.296;16.416;2023-03-13T00:16:04;7.00;;;4.85;;
75926;SDS011;64605;48.296;16.416;2023-03-13T00:18:31;7.20;;;4.85;;
75926;SDS011;64605;48.296;16.416;2023-03-13T00:21:01;5.63;;;4.22;;
75926;SDS011;64605;48.296;16.416;2023-03-13T00:23:28;11.18;;;4.60;;
75926;SDS011;64605;48.296;16.416;2023-03-13T00:25:55;7.18;;;4.65;;
75926;SDS011;64605;48.296;16.416;2023-03-13T00:28:30;7.05;;;4.38;;
75926;SDS011;64605;48.296;16.416;2023-03-13T00:31:03;6.43;;;4.70;;
75926;SDS011;64605;48.296;16.416;2023-03-13T00:33:32;7.40;;;4.63;;
75926;SDS011;64605;48.296;16.416;2023-03-13T00:36:03;6.50;;;4.13;;
75926;SDS011;64605;48.296;16.416;2023-03-13T00:38:31;9.40;;;4.53;;
75926;SDS011;64605;48.296;16.416;2023-03-13T00:40:58;5.53;;;3.88;;
75926;SDS011;64605;48.296;16.416;2023-03-13T00:43:24;5.20;;;4.10;;
75926;SDS011;64605;48.296;16.416;2023-03-13T00:45:50;6.57;;;3.88;;
75926;SDS011;64605;48.296;16.416;2023-03-13T00:48:15;6.15;;;3.70;;
75926;SDS011;64605;48.296;16.416;2023-03-13T00:50:41;5.00;;;3.35;;
75926;SDS011;64605;48.296;16.416;2023-03-13T00:53:06;8.55;;;4.35;;
75926;SDS011;64605;48.296;16.416;2023-03-13T00:55:32;4.82;;;3.53;;
75926;SDS011;64605;48.296;16.416;2023-03-13T00:57:58;6.53;;;3.28;;
75926;SDS011;64605;48.296;16.416;2023-03-13T01:00:23;4.57;;;3.00;;
75926;SDS011;64605;48.296;16.416;2023-03-13T01:02:49;4.97;;;3.40;;
75926;SDS011;64605;48.296;16.416;2023-03-13T01:05:15;5.88;;;3.13;;
75926;SDS011;64605;48.296;16.416;2023-03-13T01:07:40;4.88;;;3.05;;
75926;SDS011;64605;48.296;16.416;2023-03-13T01:10:06;5.38;;;3.17;;
75926;SDS011;64605;48.296;16.416;2023-03-13T01:12:32;6.10;;;2.75;;
75926;SDS011;64605;48.296;16.416;2023-03-13T01:14:58;6.28;;;2.83;;
75926;SDS011;64605;48.296;16.416;2023-03-13T01:17:23;3.97;;;2.58;;
75926;SDS011;64605;48.296;16.416;2023-03-13T01:19:49;5.30;;;2.60;;
75926;SDS011;64605;48.296;16.416;2023-03-13T01:22:14;4.43;;;2.50;;
75926;SDS011;64605;48.296;16.416;2023-03-13T01:24:40;5.25;;;2.63;;
75926;SDS011;64605;48.296;16.416;2023-03-13T01:27:06;5.95;;;2.72;;
75926;SDS011;64605;48.296;16.416;2023-03-13T01:29:31;4.55;;;2.60;;
75926;SDS011;64605;48.296;16.416;2023-03-13T01:31:57;4.97;;;2.35;;
75926;SDS011;64605;48.296;16.416;2023-03-13T01:34:22;3.60;;;2.28;;
75926;SDS011;64605;48.296;16.416;2023-03-13T01:36:48;3.63;;;2.42;;
75926;SDS011;64605;48.296;16.416;2023-03-13T01:39:16;7.47;;;3.42;;
75926;SDS011;64605;48.296;16.416;2023-03-13T01:41:42;5.03;;;3.53;;
75926;SDS011;64605;48.296;16.416;2023-03-13T01:44:21;5.55;;;3.83;;
75926;SDS011;64605;48.296;16.416;2023-03-13T01:46:48;6.45;;;3.58;;
75926;SDS011;64605;48.296;16.416;2023-03-13T01:49:24;5.03;;;3.55;;
75926;SDS011;64605;48.296;16.416;2023-03-13T01:51:54;8.27;;;4.00;;
75926;SDS011;64605;48.296;16.416;2023-03-13T01:54:28;5.60;;;3.95;;
75926;SDS011;64605;48.296;16.416;2023-03-13T01:57:00;6.22;;;3.50;;
75926;SDS011;64605;48.296;16.416;2023-03-13T01:59:46;6.80;;;3.80;;
75926;SDS011;64605;48.296;16.416;2023-03-13T02:02:28;5.95;;;3.80;;
75926;SDS011;64605;48.296;16.416;2023-03-13T02:04:56;5.43;;;4.03;;
75926;SDS011;64605;48.296;16.416;2023-03-13T02:10:30;5.10;;;3.38;;
75926;SDS011;64605;48.296;16.416;2023-03-13T02:12:58;5.53;;;3.40;;
75926;SDS011;64605;48.296;16.416;2023-03-13T02:15:26;6.32;;;3.42;;
75926;SDS011;64605;48.296;16.416;2023-03-13T02:17:53;5.43;;;3.88;;
75926;SDS011;64605;48.296;16.416;2023-03-13T02:20:20;4.60;;;3.75;;
75926;SDS011;64605;48.296;16.416;2023-03-13T02:30:21;6.55;;;3.42;;
75926;SDS011;64605;48.296;16.416;2023-03-13T02:32:47;5.72;;;3.45;;
75926;SDS011;64605;48.296;16.416;2023-03-13T02:35:15;4.80;;;3.20;;
75926;SDS011;64605;48.296;16.416;2023-03-13T02:37:43;6.55;;;3.80;;
75926;SDS011;64605;48.296;16.416;2023-03-13T02:40:13;5.93;;;3.90;;
75926;SDS011;64605;48.296;16.416;2023-03-13T02:42:42;4.80;;;3.88;;
75926;SDS011;64605;48.296;16.416;2023-03-13T02:45:12;7.60;;;3.60;;
75926;SDS011;64605;48.296;16.416;2023-03-13T02:47:38;9.40;;;3.95;;
75926;SDS011;64605;48.296;16.416;2023-03-13T02:50:04;4.78;;;4.05;;
75926;SDS011;64605;48.296;16.416;2023-03-13T02:52:37;5.47;;;3.60;;
75926;SDS011;64605;48.296;16.416;2023-03-13T02:55:16;4.78;;;3.05;;
75926;SDS011;64605;48.296;16.416;2023-03-13T02:57:48;7.70;;;4.32;;
75926;SDS011;64605;48.296;16.416;2023-03-13T03:00:14;6.03;;;3.65;;
75926;SDS011;64605;48.296;16.416;2023-03-13T03:02:41;4.85;;;3.20;;
75926;SDS011;64605;48.296;16.416;2023-03-13T03:05:07;5.00;;;3.22;;
75926;SDS011;64605;48.296;16.416;2023-03-13T03:07:34;6.13;;;3.67;;
75926;SDS011;64605;48.296;16.416;2023-03-13T03:09:59;8.43;;;4.22;;
75926;SDS011;64605;48.296;16.416;2023-03-13T03:12:25;5.90;;;3.80;;
75926;SDS011;64605;48.296;16.416;2023-03-13T03:14:51;9.43;;;4.68;;
75926;SDS011;64605;48.296;16.416;2023-03-13T03:17:17;7.15;;;4.05;;
75926;SDS011;64605;48.296;16.416;2023-03-13T03:19:42;5.53;;;3.63;;
75926;SDS011;64605;48.296;16.416;2023-03-13T03:22:08;5.80;;;4.03;;
75926;SDS011;64605;48.296;16.416;2023-03-13T03:24:33;7.50;;;4.50;;
75926;SDS011;64605;48.296;16.416;2023-03-13T03:26:59;6.47;;;4.13;;
75926;SDS011;64605;48.296;16.416;2023-03-13T03:29:25;5.63;;;3.80;;
75926;SDS011;64605;48.296;16.416;2023-03-13T03:31:51;6.15;;;4.40;;
75926;SDS011;64605;48.296;16.416;2023-03-13T03:34:17;6.15;;;4.15;;
75926;SDS011;64605;48.296;16.416;2023-03-13T03:36:44;5.90;;;4.28;;
75926;SDS011;64605;48.296;16.416;2023-03-13T03:39:09;7.18;;;4.30;;
75926;SDS011;64605;48.296;16.416;2023-03-13T03:41:35;6.05;;;4.35;;
75926;SDS011;64605;48.296;16.416;2023-03-13T03:44:01;5.93;;;3.90;;
75926;SDS011;64605;48.296;16.416;2023-03-13T03:46:28;6.18;;;4.22;;
75926;SDS011;64605;48.296;16.416;2023-03-13T03:48:54;7.00;;;3.67;;
75926;SDS011;64605;48.296;16.416;2023-03-13T03:51:19;7.22;;;4.03;;
75926;SDS011;64605;48.296;16.416;2023-03-13T03:53:45;6.43;;;4.70;;
75926;SDS011;64605;48.296;16.416;2023-03-13T03:56:11;5.60;;;4.13;;
75926;SDS011;64605;48.296;16.416;2023-03-13T03:58:37;7.75;;;4.28;;
75926;SDS011;64605;48.296;16.416;2023-03-13T04:01:02;5.78;;;4.22;;
75926;SDS011;64605;48.296;16.416;2023-03-13T04:03:28;5.45;;;4.47;;
75926;SDS011;64605;48.296;16.416;2023-03-13T04:05:54;8.73;;;4.88;;
75926;SDS011;64605;48.296;16.416;2023-03-13T04:08:20;6.70;;;4.72;;
75926;SDS011;64605;48.296;16.416;2023-03-13T04:10:46;7.50;;;4.50;;
75926;SDS011;64605;48.296;16.416;2023-03-13T04:13:11;5.15;;;4.25;;
75926;SDS011;64605;48.296;16.416;2023-03-13T04:15:40;7.43;;;4.80;;
75926;SDS011;64605;48.296;16.416;2023-03-13T04:18:06;6.15;;;4.60;;
75926;SDS011;64605;48.296;16.416;2023-03-13T04:20:32;6.28;;;4.72;;
75926;SDS011;64605;48.296;16.416;2023-03-13T04:22:57;6.30;;;5.05;;
75926;SDS011;64605;48.296;16.416;2023-03-13T04:25:23;7.53;;;5.53;;
75926;SDS011;64605;48.296;16.416;2023-03-13T04:27:49;9.70;;;5.60;;
75926;SDS011;64605;48.296;16.416;2023-03-13T04:30:15;7.13;;;5.32;;
75926;SDS011;64605;48.296;16.416;2023-03-13T04:32:41;6.20;;;4.50;;
75926;SDS011;64605;48.296;16.416;2023-03-13T04:35:07;7.78;;;5.10;;
75926;SDS011;64605;48.296;16.416;2023-03-13T04:37:33;9.40;;;5.25;;
75926;SDS011;64605;48.296;16.416;2023-03-13T04:39:58;8.02;;;5.80;;
75926;SDS011;64605;48.296;16.416;2023-03-13T04:42:25;6.80;;;4.50;;
75926;SDS011;64605;48.296;16.416;2023-03-13T04:44:51;7.65;;;5.40;;
75926;SDS011;64605;48.296;16.416;2023-03-13T04:47:16;7.00;;;4.82;;
75926;SDS011;64605;48.296;16.416;2023-03-13T04:49:42;7.13;;;5.35;;
75926;SDS011;64605;48.296;16.416;2023-03-13T04:52:08;6.82;;;5.50;;
75926;SDS011;64605;48.296;16.416;2023-03-13T04:54:34;10.27;;;5.55;;
75926;SDS011;64605;48.296;16.416;2023-03-13T04:56:59;9.73;;;5.93;;
75926;SDS011;64605;48.296;16.416;2023-03-13T04:59:25;10.07;;;6.35;;
75926;SDS011;64605;48.296;16.416;2023-03-13T05:01:51;11.43;;;7.60;;
75926;SDS011;64605;48.296;16.416;2023-03-13T05:04:16;10.85;;;7.20;;
75926;SDS011;64605;48.296;16.416;2023-03-13T05:06:42;10.25;;;7.25;;
75926;SDS011;64605;48.296;16.416;2023-03-13T05:09:07;13.32;;;8.55;;
75926;SDS011;64605;48.296;16.416;2023-03-13T05:11:33;10.07;;;6.75;;
75926;SDS011;64605;48.296;16.416;2023-03-13T05:13:59;11.95;;;6.25;;
75926;SDS011;64605;48.296;16.416;2023-03-13T05:16:25;8.45;;;6.47;;
75926;SDS011;64605;48.296;16.416;2023-03-13T05:18:50;8.23;;;6.00;;
75926;SDS011;64605;48.296;16.416;2023-03-13T05:21:16;9.85;;;5.95;;
75926;SDS011;64605;48.296;16.416;2023-03-13T05:23:41;8.07;;;5.55;;
75926;SDS011;64605;48.296;16.416;2023-03-13T05:26:07;8.48;;;5.93;;
75926;SDS011;64605;48.296;16.416;2023-03-13T05:28:33;8.95;;;5.88;;
75926;SDS011;64605;48.296;16.416;2023-03-13T05:30:58;10.98;;;6.18;;
75926;SDS011;64605;48.296;16.416;2023-03-13T05:33:24;8.63;;;6.20;;
75926;SDS011;64605;48.296;16.416;2023-03-13T05:35:49;8.73;;;6.00;;
75926;SDS011;64605;48.296;16.416;2023-03-13T05:38:15;7.97;;;6.15;;
75926;SDS011;64605;48.296;16.416;2023-03-13T05:40:41;9.05;;;5.57;;
75926;SDS011;64605;48.296;16.416;2023-03-13T05:43:06;10.00;;;6.40;;
75926;SDS011;64605;48.296;16.416;2023-03-13T05:45:32;7.63;;;5.55;;
75926;SDS011;64605;48.296;16.416;2023-03-13T05:47:58;8.18;;;5.60;;
75926;SDS011;64605;48.296;16.416;2023-03-13T05:50:24;7.25;;;6.07;;
75926;SDS011;64605;48.296;16.416;2023-03-13T05:52:50;9.27;;;5.72;;
75926;SDS011;64605;48.296;16.416;2023-03-13T05:55:16;7.10;;;5.60;;
75926;SDS011;64605;48.296;16.416;2023-03-13T05:57:44;8.50;;;6.18;;
75926;SDS011;64605;48.296;16.416;2023-03-13T06:00:11;8.60;;;5.40;;
75926;SDS011;64605;48.296;16.416;2023-03-13T06:02:38;9.00;;;5.30;;
75926;SDS011;64605;48.296;16.416;2023-03-13T06:05:03;14.63;;;6.13;;
75926;SDS011;64605;48.296;16.416;2023-03-13T06:07:29;7.55;;;5.57;;
75926;SDS011;64605;48.296;16.416;2023-03-13T06:09:55;8.82;;;5.40;;
75926;SDS011;64605;48.296;16.416;2023-03-13T06:12:20;10.60;;;6.20;;
75926;SDS011;64605;48.296;16.416;2023-03-13T06:14:46;8.05;;;6.00;;
75926;SDS011;64605;48.296;16.416;2023-03-13T06:17:12;9.43;;;5.25;;
75926;SDS011;64605;48.296;16.416;2023-03-13T06:19:37;7.57;;;4.75;;
75926;SDS011;64605;48.296;16.416;2023-03-13T06:22:03;9.90;;;5.25;;
75926;SDS011;64605;48.296;16.416;2023-03-13T06:24:29;8.77;;;5.78;;
75926;SDS011;64605;48.296;16.416;2023-03-13T06:26:54;8.13;;;5.07;;
75926;SDS011;64605;48.296;16.416;2023-03-13T06:29:20;9.75;;;5.45;;
75926;SDS011;64605;48.296;16.416;2023-03-13T06:31:47;10.48;;;5.15;;
75926;SDS011;64605;48.296;16.416;2023-03-13T06:34:13;7.50;;;5.60;;
75926;SDS011;64605;48.296;16.416;2023-03-13T06:36:39;8.32;;;5.90;;
75926;SDS011;64605;48.296;16.416;2023-03-13T06:39:05;9.07;;;5.43;;
75926;SDS011;64605;48.296;16.416;2023-03-13T06:41:30;6.80;;;5.15;;
75926;SDS011;64605;48.296;16.416;2023-03-13T06:43:57;11.60;;;5.20;;
75926;SDS011;64605;48.296;16.416;2023-03-13T06:46:23;10.80;;;5.38;;
75926;SDS011;64605;48.296;16.416;2023-03-13T06:48:49;6.60;;;4.53;;
75926;SDS011;64605;48.296;16.416;2023-03-13T06:51:16;15.65;;;5.30;;
75926;SDS011;64605;48.296;16.416;2023-03-13T06:53:44;8.70;;;4.30;;
75926;SDS011;64605;48.296;16.416;2023-03-13T06:56:11;9.23;;;4.53;;
75926;SDS011;64605;48.296;16.416;2023-03-13T06:58:36;8.70;;;4.50;;
75926;SDS011;64605;48.296;16.416;2023-03-13T07:01:06;8.45;;;4.32;;
75926;SDS011;64605;48.296;16.416;2023-03-13T07:03:33;8.88;;;5.35;;
75926;SDS011;64605;48.296;16.416;2023-03-13T07:05:59;8.95;;;4.32;;
75926;SDS011;64605;48.296;16.416;2023-03-13T07:08:25;9.45;;;4.82;;
75926;SDS011;64605;48.296;16.416;2023-03-13T07:10:51;8.25;;;4.88;;
75926;SDS011;64605;48.296;16.416;2023-03-13T07:13:18;8.60;;;4.60;;
75926;SDS011;64605;48.296;16.416;2023-03-13T07:15:45;8.20;;;5.05;;
75926;SDS011;64605;48.296;16.416;2023-03-13T07:18:12;9.15;;;4.80;;
75926;SDS011;64605;48.296;16.416;2023-03-13T07:20:38;9.45;;;5.32;;
75926;SDS011;64605;48.296;16.416;2023-03-13T07:23:04;7.07;;;5.40;;
75926;SDS011;64605;48.296;16.416;2023-03-13T07:25:29;8.07;;;5.10;;
75926;SDS011;64605;48.296;16.416;2023-03-13T07:27:55;8.60;;;5.97;;
75926;SDS011;64605;48.296;16.416;2023-03-13T07:30:21;7.10;;;5.55;;
75926;SDS011;64605;48.296;16.416;2023-03-13T07:32:47;8.18;;;5.28;;
75926;SDS011;64605;48.296;16.416;2023-03-13T07:35:13;10.10;;;5.22;;
75926;SDS011;64605;48.296;16.416;2023-03-13T07:37:39;7.07;;;4.55;;
75926;SDS011;64605;48.296;16.416;2023-03-13T07:40:05;8.00;;;3.85;;
75926;SDS011;64605;48.296;16.416;2023-03-13T07:42:33;6.47;;;3.17;;
75926;SDS011;64605;48.296;16.416;2023-03-13T07:44:58;8.15;;;3.28;;
75926;SDS011;64605;48.296;16.416;2023-03-13T07:47:24;6.15;;;2.97;;
75926;SDS011;64605;48.296;16.416;2023-03-13T07:49:50;6.10;;;2.50;;
75926;SDS011;64605;48.296;16.416;2023-03-13T07:52:15;5.88;;;2.90;;
75926;SDS011;64605;48.296;16.416;2023-03-13T07:54:42;7.90;;;2.63;;
75926;SDS011;64605;48.296;16.416;2023-03-13T07:57:08;5.78;;;2.72;;
75926;SDS011;64605;48.296;16.416;2023-03-13T07:59:34;7.15;;;2.70;;
75926;SDS011;64605;48.296;16.416;2023-03-13T08:02:00;7.25;;;3.78;;
75926;SDS011;64605;48.296;16.416;2023-03-13T08:04:26;6.75;;;4.53;;
75926;SDS011;64605;48.296;16.416;2023-03-13T08:06:51;12.45;;;5.55;;
75926;SDS011;64605;48.296;16.416;2023-03-13T08:09:18;6.82;;;5.32;;
75926;SDS011;64605;48.296;16.416;2023-03-13T08:11:44;10.30;;;5.45;;
75926;SDS011;64605;48.296;16.416;2023-03-13T08:14:10;7.50;;;5.15;;
75926;SDS011;64605;48.296;16.416;2023-03-13T08:16:36;8.07;;;5.15;;
75926;SDS011;64605;48.296;16.416;2023-03-13T08:19:02;10.45;;;5.65;;
75926;SDS011;64605;48.296;16.416;2023-03-13T08:21:31;10.82;;;5.43;;
75926;SDS011;64605;48.296;16.416;2023-03-13T08:23:59;10.38;;;5.55;;
75926;SDS011;64605;48.296;16.416;2023-03-13T08:26:28;8.02;;;5.30;;
75926;SDS011;64605;48.296;16.416;2023-03-13T08:28:55;8.70;;;5.57;;
75926;SDS011;64605;48.296;16.416;2023-03-13T08:31:30;9.48;;;5.80;;
75926;SDS011;64605;48.296;16.416;2023-03-13T08:33:57;7.80;;;6.05;;
75926;SDS011;64605;48.296;16.416;2023-03-13T08:36:27;12.32;;;5.63;;
75926;SDS011;64605;48.296;16.416;2023-03-13T08:38:57;9.77;;;6.07;;
75926;SDS011;64605;48.296;16.416;2023-03-13T08:41:26;9.32;;;5.90;;
75926;SDS011;64605;48.296;16.416;2023-03-13T08:43:56;10.98;;;5.78;;
75926;SDS011;64605;48.296;16.416;2023-03-13T08:46:22;11.77;;;6.43;;
75926;SDS011;64605;48.296;16.416;2023-03-13T08:48:49;7.75;;;6.10;;
75926;SDS011;64605;48.296;16.416;2023-03-13T08:51:16;9.80;;;6.13;;
75926;SDS011;64605;48.296;16.416;2023-03-13T08:53:42;10.63;;;5.68;;
75926;SDS011;64605;48.296;16.416;2023-03-13T08:56:09;9.77;;;6.13;;
75926;SDS011;64605;48.296;16.416;2023-03-13T08:58:36;7.32;;;5.10;;
75926;SDS011;64605;48.296;16.416;2023-03-13T09:01:04;11.52;;;5.80;;
75926;SDS011;64605;48.296;16.416;2023-03-13T09:03:37;11.18;;;6.40;;
75926;SDS011;64605;48.296;16.416;2023-03-13T09:06:04;15.80;;;6.07;;
75926;SDS011;64605;48.296;16.416;2023-03-13T09:08:30;8.07;;;5.53;;
75926;SDS011;64605;48.296;16.416;2023-03-13T09:10:57;7.55;;;4.95;;
75926;SDS011;64605;48.296;16.416;2023-03-13T09:13:24;10.50;;;5.22;;
75926;SDS011;64605;48.296;16.416;2023-03-13T09:16:00;6.85;;;5.20;;
75926;SDS011;64605;48.296;16.416;2023-03-13T09:18:27;11.77;;;6.85;;
75926;SDS011;64605;48.296;16.416;2023-03-13T09:20:53;8.77;;;5.35;;
75926;SDS011;64605;48.296;16.416;2023-03-13T09:23:19;7.93;;;5.10;;
75926;SDS011;64605;48.296;16.416;2023-03-13T09:25:45;9.52;;;5.55;;
75926;SDS011;64605;48.296;16.416;2023-03-13T09:28:12;11.80;;;6.50;;
75926;SDS011;64605;48.296;16.416;2023-03-13T09:30:38;11.68;;;6.18;;
75926;SDS011;64605;48.296;16.416;2023-03-13T09:33:03;7.75;;;5.80;;
75926;SDS011;64605;48.296;16.416;2023-03-13T09:35:29;11.05;;;5.97;;
75926;SDS011;64605;48.296;16.416;2023-03-13T09:37:55;8.85;;;6.10;;
75926;SDS011;64605;48.296;16.416;2023-03-13T09:40:21;8.27;;;5.90;;
75926;SDS011;64605;48.296;16.416;2023-03-13T09:42:56;8.50;;;6.57;;
75926;SDS011;64605;48.296;16.416;2023-03-13T09:45:31;8.13;;;6.68;;
75926;SDS011;64605;48.296;16.416;2023-03-13T09:50:39;8.05;;;6.70;;
75926;SDS011;64605;48.296;16.416;2023-03-13T09:53:21;7.72;;;5.93;;
75926;SDS011;64605;48.296;16.416;2023-03-13T09:55:58;8.52;;;6.80;;
75926;SDS011;64605;48.296;16.416;2023-03-13T09:58:26;6.90;;;6.20;;
75926;SDS011;64605;48.296;16.416;2023-03-13T10:00:55;8.40;;;6.13;;
75926;SDS011;64605;48.296;16.416;2023-03-13T10:06:39;9.55;;;6.32;;
75926;SDS011;64605;48.296;16.416;2023-03-13T10:09:14;11.23;;;7.68;;
75926;SDS011;64605;48.296;16.416;2023-03-13T10:11:54;10.68;;;7.45;;
75926;SDS011;64605;48.296;16.416;2023-03-13T10:14:28;9.02;;;7.18;;
75926;SDS011;64605;48.296;16.416;2023-03-13T10:19:42;11.18;;;7.18;;
75926;SDS011;64605;48.296;16.416;2023-03-13T10:22:18;10.85;;;6.38;;
75926;SDS011;64605;48.296;16.416;2023-03-13T10:24:50;9.50;;;7.32;;
75926;SDS011;64605;48.296;16.416;2023-03-13T10:27:18;13.63;;;7.22;;
75926;SDS011;64605;48.296;16.416;2023-03-13T10:29:44;8.90;;;6.63;;
75926;SDS011;64605;48.296;16.416;2023-03-13T10:32:11;9.90;;;7.38;;
75926;SDS011;64605;48.296;16.416;2023-03-13T10:34:46;10.80;;;7.72;;
75926;SDS011;64605;48.296;16.416;2023-03-13T10:37:28;8.50;;;7.00;;
75926;SDS011;64605;48.296;16.416;2023-03-13T10:43:00;11.55;;;7.30;;
75926;SDS011;64605;48.296;16.416;2023-03-13T10:45:33;9.55;;;6.78;;
75926;SDS011;64605;48.296;16.416;2023-03-13T10:48:01;10.50;;;7.93;;
75926;SDS011;64605;48.296;16.416;2023-03-13T10:50:34;11.85;;;7.28;;
75926;SDS011;64605;48.296;16.416;2023-03-13T10:53:06;13.43;;;7.38;;
75926;SDS011;64605;48.296;16.416;2023-03-13T10:55:53;10.18;;;6.82;;
75926;SDS011;64605;48.296;16.416;2023-03-13T10:58:23;10.00;;;6.10;;
75926;SDS011;64605;48.296;16.416;2023-03-13T11:01:20;10.40;;;6.82;;
75926;SDS011;64605;48.296;16.416;2023-03-13T11:03:56;9.82;;;6.22;;
75926;SDS011;64605;48.296;16.416;2023-03-13T11:06:31;9.15;;;6.53;;
75926;SDS011;64605;48.296;16.416;2023-03-13T11:09:14;8.30;;;6.00;;
75926;SDS011;64605;48.296;16.416;2023-03-13T11:11:52;10.25;;;6.75;;
75926;SDS011;64605;48.296;16.416;2023-03-13T11:14:23;9.32;;;6.22;;
75926;SDS011;64605;48.296;16.416;2023-03-13T11:16:51;13.35;;;6.32;;
75926;SDS011;64605;48.296;16.416;2023-03-13T11:24:48;8.00;;;5.82;;
75926;SDS011;64605;48.296;16.416;2023-03-13T11:32:51;7.53;;;5.45;;
75926;SDS011;64605;48.296;16.416;2023-03-13T11:38:07;8.52;;;5.07;;
75926;SDS011;64605;48.296;16.416;2023-03-13T11:40:49;7.25;;;5.47;;
75926;SDS011;64605;48.296;16.416;2023-03-13T11:48:54;9.13;;;4.97;;
75926;SDS011;64605;48.296;16.416;2023-03-13T11:54:27;6.88;;;4.68;;
75926;SDS011;64605;48.296;16.416;2023-03-13T11:57:06;7.45;;;4.50;;
75926;SDS011;64605;48.296;16.416;2023-03-13T11:59:50;6.72;;;4.47;;
75926;SDS011;64605;48.296;16.416;2023-03-13T12:02:38;6.90;;;4.97;;
75926;SDS011;64605;48.296;16.416;2023-03-13T12:05:11;8.02;;;4.57;;
75926;SDS011;64605;48.296;16.416;2023-03-13T12:07:46;7.85;;;4.38;;
75926;SDS011;64605;48.296;16.416;2023-03-13T12:10:48;8.82;;;3.85;;
75926;SDS011;64605;48.296;16.416;2023-03-13T12:16:04;10.35;;;4.25;;
75926;SDS011;64605;48.296;16.416;2023-03-13T12:18:37;4.75;;;3.72;;
75926;SDS011;64605;48.296;16.416;2023-03-13T12:26:20;7.05;;;4.53;;
75926;SDS011;64605;48.296;16.416;2023-03-13T12:29:07;6.35;;;4.00;;
75926;SDS011;64605;48.296;16.416;2023-03-13T12:34:26;6.82;;;3.65;;
75926;SDS011;64605;48.296;16.416;2023-03-13T12:40:18;6.10;;;3.72;;
75926;SDS011;64605;48.296;16.416;2023-03-13T12:43:09;6.20;;;3.10;;
75926;SDS011;64605;48.296;16.416;2023-03-13T12:45:47;6.38;;;3.45;;
75926;SDS011;64605;48.296;16.416;2023-03-13T12:48:18;4.93;;;3.38;;
75926;SDS011;64605;48.296;16.416;2023-03-13T12:54:08;7.85;;;4.13;;
75926;SDS011;64605;48.296;16.416;2023-03-13T12:59:55;9.20;;;3.83;;
75926;SDS011;64605;48.296;16.416;2023-03-13T13:02:29;13.25;;;3.88;;
75926;SDS011;64605;48.296;16.416;2023-03-13T13:04:56;8.70;;;3.70;;
75926;SDS011;64605;48.296;16.416;2023-03-13T13:12:44;6.70;;;3.47;;
75926;SDS011;64605;48.296;16.416;2023-03-13T13:15:24;6.95;;;3.30;;
75926;SDS011;64605;48.296;16.416;2023-03-13T13:29:04;5.55;;;3.17;;
75926;SDS011;64605;48.296;16.416;2023-03-13T13:44:57;9.90;;;4.10;;
75926;SDS011;64605;48.296;16.416;2023-03-13T13:47:39;9.18;;;4.00;;
75926;SDS011;64605;48.296;16.416;2023-03-13T13:50:48;9.02;;;3.67;;
75926;SDS011;64605;48.296;16.416;2023-03-13T13:59:10;8.82;;;3.60;;
75926;SDS011;64605;48.296;16.416;2023-03-13T14:01:47;9.13;;;3.90;;
75926;SDS011;64605;48.296;16.416;2023-03-13T14:04:16;11.00;;;3.88;;
75926;SDS011;64605;48.296;16.416;2023-03-13T14:06:49;6.55;;;3.45;;
75926;SDS011;64605;48.296;16.416;2023-03-13T14:09:31;11.45;;;3.55;;
75926;SDS011;64605;48.296;16.416;2023-03-13T14:11:58;11.60;;;3.72;;
75926;SDS011;64605;48.296;16.416;2023-03-13T14:14:23;11.45;;;3.30;;
75926;SDS011;64605;48.296;16.416;2023-03-13T14:16:52;9.48;;;3.90;;
75926;SDS011;64605;48.296;16.416;2023-03-13T14:24:28;8.38;;;4.10;;
75926;SDS011;64605;48.296;16.416;2023-03-13T14:26:53;8.65;;;3.28;;
75926;SDS011;64605;48.296;16.416;2023-03-13T14:29:19;8.23;;;3.65;;
75926;SDS011;64605;48.296;16.416;2023-03-13T14:31:59;4.60;;;3.20;;
75926;SDS011;64605;48.296;16.416;2023-03-13T14:34:26;6.25;;;3.60;;
75926;SDS011;64605;48.296;16.416;2023-03-13T14:36:56;8.85;;;3.72;;
75926;SDS011;64605;48.296;16.416;2023-03-13T14:41:55;9.60;;;3.33;;
75926;SDS011;64605;48.296;16.416;2023-03-13T14:44:27;6.93;;;3.33;;
75926;SDS011;64605;48.296;16.416;2023-03-13T14:46:56;8.35;;;3.10;;
75926;SDS011;64605;48.296;16.416;2023-03-13T14:49:24;6.05;;;2.90;;
75926;SDS011;64605;48.296;16.416;2023-03-13T14:57:14;8.50;;;3.17;;
75926;SDS011;64605;48.296;16.416;2023-03-13T14:59:45;5.97;;;3.35;;
75926;SDS011;64605;48.296;16.416;2023-03-13T15:02:17;8.82;;;3.30;;
75926;SDS011;64605;48.296;16.416;2023-03-13T15:04:51;6.43;;;3.50;;
75926;SDS011;64605;48.296;16.416;2023-03-13T15:10:01;8.48;;;3.45;;
75926;SDS011;64605;48.296;16.416;2023-03-13T15:12:42;7.00;;;3.45;;
75926;SDS011;64605;48.296;16.416;2023-03-13T15:15:09;8.63;;;3.60;;
75926;SDS011;64605;48.296;16.416;2023-03-13T15:17:35;10.25;;;3.85;;
75926;SDS011;64605;48.296;16.416;2023-03-13T15:20:01;5.50;;;3.40;;
75926;SDS011;64605;48.296;16.416;2023-03-13T15:22:31;8.23;;;3.72;;
75926;SDS011;64605;48.296;16.416;2023-03-13T15:25:01;6.55;;;3.40;;
75926;SDS011;64605;48.296;16.416;2023-03-13T15:27:28;6.88;;;3.30;;
75926;SDS011;64605;48.296;16.416;2023-03-13T15:29:54;7.28;;;3.53;;
75926;SDS011;64605;48.296;16.416;2023-03-13T15:32:24;6.38;;;3.45;;
75926;SDS011;64605;48.296;16.416;2023-03-13T15:34:52;13.00;;;3.63;;
75926;SDS011;64605;48.296;16.416;2023-03-13T15:37:22;7.03;;;3.53;;
75926;SDS011;64605;48.296;16.416;2023-03-13T15:39:51;6.40;;;3.55;;
75926;SDS011;64605;48.296;16.416;2023-03-13T15:42:17;7.38;;;3.28;;
75926;SDS011;64605;48.296;16.416;2023-03-13T15:44:43;7.45;;;3.97;;
75926;SDS011;64605;48.296;16.416;2023-03-13T15:47:09;5.65;;;3.45;;
75926;SDS011;64605;48.296;16.416;2023-03-13T15:49:38;7.43;;;3.50;;
75926;SDS011;64605;48.296;16.416;2023-03-13T15:52:08;7.05;;;3.38;;
75926;SDS011;64605;48.296;16.416;2023-03-13T15:54:47;6.45;;;3.65;;
75926;SDS011;64605;48.296;16.416;2023-03-13T15:57:17;6.05;;;3.47;;
75926;SDS011;64605;48.296;16.416;2023-03-13T15:59:47;5.32;;;3.40;;
75926;SDS011;64605;48.296;16.416;2023-03-13T16:02:14;6.45;;;3.70;;
75926;SDS011;64605;48.296;16.416;2023-03-13T16:04:42;7.20;;;3.20;;
75926;SDS011;64605;48.296;16.416;2023-03-13T16:07:09;8.80;;;3.60;;
75926;SDS011;64605;48.296;16.416;2023-03-13T16:09:40;6.28;;;3.53;;
75926;SDS011;64605;48.296;16.416;2023-03-13T16:12:06;9.85;;;3.83;;
75926;SDS011;64605;48.296;16.416;2023-03-13T16:14:32;7.40;;;3.17;;
75926;SDS011;64605;48.296;16.416;2023-03-13T16:16:58;9.27;;;3.75;;
75926;SDS011;64605;48.296;16.416;2023-03-13T16:19:24;8.75;;;3.58;;
75926;SDS011;64605;48.296;16.416;2023-03-13T16:21:50;6.88;;;3.05;;
75926;SDS011;64605;48.296;16.416;2023-03-13T16:24:16;7.28;;;3.17;;
75926;SDS011;64605;48.296;16.416;2023-03-13T16:26:43;7.72;;;3.67;;
75926;SDS011;64605;48.296;16.416;2023-03-13T16:29:13;6.25;;;3.17;;
75926;SDS011;64605;48.296;16.416;2023-03-13T16:31:40;8.93;;;4.10;;
75926;SDS011;64605;48.296;16.416;2023-03-13T16:34:06;6.95;;;3.45;;
75926;SDS011;64605;48.296;16.416;2023-03-13T16:36:33;5.15;;;3.38;;
75926;SDS011;64605;48.296;16.416;2023-03-13T16:39:01;5.55;;;3.75;;
75926;SDS011;64605;48.296;16.416;2023-03-13T16:41:29;6.82;;;4.07;;